Time;durP1;ratioP1;P1;durP2;ratioP2;P2;SDS_P1;SDS_P2;PMS_P1;PMS_P2;Temp;Humidity;BMP_temperature;BMP_pressure;BME280_temperature;BME280_humidity;BME280_pressure;Samples;Min_cycle;Max_cycle;Signal;HPM_P1;HPM_P2
2024/04/09 00:01:39;;;;;;;;;8.00;8.00;;;;;26.40;31.18;101486.52;244852;1183;88238;-69
2024/04/09 00:06:43;;;;;;;;;7.00;6.00;;;;;26.40;31.05;101485.64;244873;1186;87992;-69
2024/04/09 00:11:47;;;;;;;;;9.00;7.33;;;;;26.39;31.08;101484.88;244874;1183;88876;-69
2024/04/09 00:16:53;;;;;;;;;7.00;7.00;;;;;26.38;31.22;101481.14;244853;1183;87939;-69
2024/04/09 00:21:56;;;;;;;;;7.75;7.75;;;;;26.38;31.18;101483.77;245130;1183;88555;-69
2024/04/09 00:27:01;;;;;;;;;7.25;7.25;;;;;26.37;31.35;101481.48;244819;1183;88502;-69
2024/04/09 00:32:05;;;;;;;;;8.00;8.00;;;;;26.36;31.24;101477.95;244835;1180;88357;-69
2024/04/09 00:37:08;;;;;;;;;7.00;7.00;;;;;26.35;31.24;101467.62;244865;1189;88212;-69
2024/04/09 00:42:11;;;;;;;;;9.00;7.00;;;;;26.35;31.29;101469.02;244836;1183;87740;-69
2024/04/09 00:47:16;;;;;;;;;7.50;7.50;;;;;26.34;31.35;101468.73;244708;1186;88174;-69
2024/04/09 00:52:21;;;;;;;;;8.00;8.00;;;;;26.34;31.23;101467.09;244744;1193;87947;-69
2024/04/09 00:57:25;;;;;;;;;7.00;7.00;;;;;26.33;31.39;101471.12;244771;1182;88237;-69
2024/04/09 01:02:28;;;;;;;;;8.00;7.50;;;;;26.32;31.36;101466.81;244796;1180;88215;-69
2024/04/09 01:07:32;;;;;;;;;7.67;7.67;;;;;26.32;31.27;101460.79;244769;1186;88631;-69
2024/04/09 01:12:36;;;;;;;;;7.75;7.75;;;;;26.31;31.27;101459.66;244762;1185;87578;-69
2024/04/09 01:17:39;;;;;;;;;7.00;7.00;;;;;26.31;31.36;101457.89;244686;1185;88620;-69
2024/04/09 01:22:43;;;;;;;;;9.00;7.00;;;;;26.31;31.31;101458.70;244747;1186;88801;-69
2024/04/09 01:27:47;;;;;;;;;6.50;6.50;;;;;26.30;31.25;101457.81;244756;1180;88262;-69
2024/04/09 01:32:51;;;;;;;;;7.50;7.50;;;;;26.29;31.30;101449.59;244922;1186;88063;-69
2024/04/09 01:37:55;;;;;;;;;8.50;8.50;;;;;26.29;31.31;101447.57;242704;1180;88588;-71
2024/04/09 01:42:59;;;;;;;;;7.50;7.50;;;;;26.31;31.22;101448.52;241348;1186;88940;-69
2024/04/09 01:48:04;;;;;;;;;6.00;6.00;;;;;26.34;31.23;101446.16;241692;1186;88395;-67
2024/04/09 01:53:12;;;;;;;;;7.00;7.00;;;;;26.34;31.27;101435.60;241084;1180;88458;-71
2024/04/09 01:58:39;;;;;;;;;7.00;7.00;;;;;26.35;31.23;101437.16;243345;1180;88987;-71
2024/04/09 02:04:15;;;;;;;;;7.00;7.00;;;;;26.34;31.11;101444.04;242717;1185;87895;-71
2024/04/09 02:09:55;;;;;;;;;8.67;7.33;;;;;26.34;31.26;101444.42;242461;1186;88160;-71
2024/04/09 02:15:12;;;;;;;;;8.00;8.00;;;;;26.35;31.25;101433.92;241118;1186;88598;-67
2024/04/09 02:20:51;;;;;;;;;7.00;7.00;;;;;26.37;31.05;101428.71;240523;1185;89125;-69
2024/04/09 02:26:23;;;;;;;;;6.00;6.00;;;;;26.37;31.04;101426.85;242786;1180;88711;-71
2024/04/09 02:31:59;;;;;;;;;8.00;8.00;;;;;26.35;31.04;101425.81;243200;1185;88162;-66
2024/04/09 02:37:35;;;;;;;;;6.00;6.00;;;;;26.33;31.16;101419.72;242179;1180;88959;-69
2024/04/09 02:42:47;;;;;;;;;9.00;8.00;;;;;26.33;31.05;101424.33;241760;1186;88074;-71
2024/04/09 02:48:16;;;;;;;;;;;;;;;26.33;31.06;101422.89;242645;1184;87502;-69
2024/04/09 02:53:52;;;;;;;;;8.00;8.00;;;;;26.32;31.17;101428.56;242818;1192;88008;-69
2024/04/09 02:59:14;;;;;;;;;8.00;8.00;;;;;26.31;31.14;101430.63;242378;1186;88400;-69
2024/04/09 03:04:53;;;;;;;;;8.00;8.00;;;;;26.31;31.18;101434.73;242578;1185;88175;-72
2024/04/09 03:10:26;;;;;;;;;9.00;9.00;;;;;26.30;31.09;101442.45;242037;1185;88358;-71
2024/04/09 03:16:02;;;;;;;;;8.33;7.33;;;;;26.31;31.27;101445.37;241906;1185;88292;-70
2024/04/09 03:21:37;;;;;;;;;8.00;8.00;;;;;26.29;31.30;101454.74;241752;1184;88876;-68
2024/04/09 03:26:44;;;;;;;;;10.00;10.00;;;;;26.22;30.77;101460.30;241777;1185;86882;-66
2024/04/09 03:32:20;;;;;;;;;9.00;9.00;;;;;26.18;30.74;101467.48;242406;1185;87731;-71
2024/04/09 03:37:36;;;;;;;;;8.00;8.00;;;;;26.16;30.74;101467.75;242237;1186;88518;-72
2024/04/09 03:43:11;;;;;;;;;10.00;10.00;;;;;26.16;30.64;101466.73;242243;1184;88751;-66
2024/04/09 03:48:14;;;;;;;;;11.50;9.00;;;;;26.15;30.51;101469.95;241943;1182;88303;-69
2024/04/09 03:53:50;;;;;;;;;9.50;9.50;;;;;26.14;30.35;101469.92;242407;1185;88862;-66
2024/04/09 03:58:56;;;;;;;;;11.00;9.50;;;;;26.13;30.38;101470.06;241784;1189;87639;-69
2024/04/09 04:04:31;;;;;;;;;11.00;9.00;;;;;26.12;30.45;101467.88;242636;1182;88815;-70
2024/04/09 04:09:53;;;;;;;;;10.50;10.00;;;;;26.12;30.42;101479.77;242796;1186;89044;-71
2024/04/09 04:15:30;;;;;;;;;10.50;10.50;;;;;26.11;30.37;101478.83;242491;1185;88236;-72
2024/04/09 04:20:53;;;;;;;;;11.00;11.00;;;;;26.11;30.36;101485.23;243014;1180;87995;-69
2024/04/09 04:26:08;;;;;;;;;12.00;12.00;;;;;26.08;30.38;101492.38;242207;1186;88220;-68
2024/04/09 04:31:27;;;;;;;;;11.00;11.00;;;;;26.06;30.40;101501.76;242847;1183;88405;-65
2024/04/09 04:37:02;;;;;;;;;12.00;12.00;;;;;26.05;30.23;101511.08;242555;1183;87452;-68
2024/04/09 04:42:17;;;;;;;;;11.50;11.50;;;;;26.06;30.53;101510.40;242741;1179;87984;-70
2024/04/09 04:47:20;;;;;;;;;11.00;11.00;;;;;26.09;30.56;101509.87;242556;1180;87919;-71
2024/04/09 04:52:31;;;;;;;;;13.50;13.50;;;;;26.19;31.10;101513.73;242147;1183;88453;-72
2024/04/09 04:57:46;;;;;;;;;14.33;12.67;;;;;26.37;31.94;101511.46;242638;1179;88215;-68
2024/04/09 05:03:12;;;;;;;;;15.00;14.00;;;;;26.61;32.60;101516.98;242953;1183;88043;-66
2024/04/09 05:09:20;;;;;;;;;13.00;13.00;;;;;26.86;33.31;101515.10;244318;1180;87860;-71
2024/04/09 05:14:27;;;;;;;;;13.25;12.50;;;;;27.11;34.55;101520.59;242896;1183;86891;-74
2024/04/09 05:19:34;;;;;;;;;18.50;14.75;;;;;27.24;34.35;101527.44;242809;1182;86869;-77
2024/04/09 05:24:44;;;;;;;;;14.00;13.75;;;;;27.28;33.77;101524.27;244400;1179;87844;-80
2024/04/09 05:29:52;;;;;;;;;15.25;15.00;;;;;27.32;32.98;101522.21;244544;1179;88995;-80
2024/04/09 05:34:56;;;;;;;;;15.75;15.75;;;;;27.33;32.46;101524.44;244457;1182;88900;-79
2024/04/09 05:40:02;;;;;;;;;15.67;15.67;;;;;27.37;32.12;101524.55;242623;1179;88554;-78
2024/04/09 05:45:10;;;;;;;;;16.00;16.00;;;;;27.40;31.77;101522.90;244571;1183;89161;-80
2024/04/09 05:50:14;;;;;;;;;15.33;14.33;;;;;27.41;31.86;101524.20;244594;1180;89011;-83
2024/04/09 05:55:18;;;;;;;;;16.25;16.25;;;;;27.38;30.98;101526.50;244468;1183;88021;-77
2024/04/09 06:00:24;;;;;;;;;15.67;15.67;;;;;26.81;30.26;101529.00;244506;1179;89070;-85
2024/04/09 06:05:30;;;;;;;;;13.25;13.25;;;;;26.49;31.59;101539.46;244488;1183;88442;-77
2024/04/09 06:10:33;;;;;;;;;13.00;13.00;;;;;26.49;33.23;101545.74;243825;1180;88869;-76
2024/04/09 06:15:38;;;;;;;;;23.25;17.50;;;;;26.73;33.38;101539.40;243787;1181;89198;-77
2024/04/09 06:21:35;;;;;;;;;16.25;13.25;;;;;26.96;33.41;101542.51;243615;1184;88106;-74
2024/04/09 06:26:41;;;;;;;;;14.67;14.33;;;;;27.17;33.09;101549.16;243980;1180;88245;-80
2024/04/09 06:31:45;;;;;;;;;12.00;11.25;;;;;27.29;33.31;101553.73;243832;1182;88656;-83
2024/04/09 06:36:49;;;;;;;;;17.25;17.25;;;;;27.38;33.04;101554.80;243967;1179;87844;-84
2024/04/09 06:41:53;;;;;;;;;17.00;16.00;;;;;27.45;32.95;101553.04;244643;1179;89226;-82
2024/04/09 06:46:58;;;;;;;;;13.50;13.50;;;;;27.55;32.88;101549.60;242939;1187;88869;-79
2024/04/09 06:52:02;;;;;;;;;15.00;14.33;;;;;27.63;32.85;101549.70;243233;1183;88344;-80
2024/04/09 06:57:06;;;;;;;;;14.25;13.75;;;;;27.49;31.32;101551.80;244443;1180;88269;-77
2024/04/09 07:02:11;;;;;;;;;14.00;14.00;;;;;27.14;31.93;101555.61;244752;1183;88707;-79
2024/04/09 07:07:17;;;;;;;;;15.75;15.75;;;;;27.03;33.90;101562.20;244537;1183;88305;-79
2024/04/09 07:12:23;;;;;;;;;14.00;14.00;;;;;27.04;33.97;101560.90;244829;1180;87720;-79
2024/04/09 07:17:27;;;;;;;;;14.50;14.50;;;;;26.90;33.13;101562.86;244836;1179;88679;-80
2024/04/09 07:22:31;;;;;;;;;13.67;13.67;;;;;26.84;32.63;101568.42;244584;1180;88485;-80
2024/04/09 07:27:36;;;;;;;;;14.67;13.33;;;;;26.84;32.18;101566.48;244667;1183;88159;-79
2024/04/09 07:32:42;;;;;;;;;13.75;13.75;;;;;26.98;32.47;101562.09;244799;1179;88646;-78
2024/04/09 07:37:45;;;;;;;;;12.75;12.75;;;;;27.21;32.30;101561.70;244783;1180;89122;-80
2024/04/09 07:42:51;;;;;;;;;13.00;13.00;;;;;27.38;32.58;101561.55;244601;1182;88911;-81
2024/04/09 07:47:56;;;;;;;;;12.50;12.50;;;;;27.56;32.02;101563.58;244585;1190;88378;-84
2024/04/09 07:53:02;;;;;;;;;13.33;13.33;;;;;27.67;31.92;101558.14;244594;1183;88893;-78
2024/04/09 07:58:07;;;;;;;;;15.25;12.00;;;;;27.79;31.83;101551.52;244606;1183;88858;-77
2024/04/09 08:03:13;;;;;;;;;16.75;15.00;;;;;27.61;30.35;101553.79;244544;1183;87830;-78
2024/04/09 08:08:18;;;;;;;;;14.00;12.67;;;;;27.25;30.40;101554.75;244713;1180;88474;-78
2024/04/09 08:13:23;;;;;;;;;10.33;10.33;;;;;27.10;30.04;101553.48;244559;1190;88265;-79
2024/04/09 08:18:28;;;;;;;;;15.00;13.25;;;;;27.01;29.95;101553.64;244679;1190;89756;-74
2024/04/09 08:23:32;;;;;;;;;16.75;14.75;;;;;26.95;29.91;101557.52;244563;1180;87950;-76
2024/04/09 08:28:37;;;;;;;;;16.33;14.33;;;;;26.92;30.23;101554.46;244635;1183;88460;-74
2024/04/09 08:33:41;;;;;;;;;17.75;14.00;;;;;26.93;30.53;101550.31;244628;1180;88525;-74
2024/04/09 08:38:45;;;;;;;;;17.67;12.33;;;;;26.94;30.41;101544.09;244854;1179;88589;-73
2024/04/09 08:43:50;;;;;;;;;18.25;16.75;;;;;26.96;30.48;101535.63;244953;1179;88941;-74
2024/04/09 08:48:55;;;;;;;;;13.75;12.50;;;;;26.98;30.51;101531.04;244530;1183;88241;-74
2024/04/09 08:53:58;;;;;;;;;12.25;12.25;;;;;27.00;30.53;101528.58;244587;1186;86515;-74
2024/04/09 08:59:04;;;;;;;;;14.00;12.50;;;;;27.02;30.68;101529.43;244882;1179;88231;-71
2024/04/09 09:04:09;;;;;;;;;14.67;11.00;;;;;27.05;30.64;101528.85;244491;1183;88000;-73
2024/04/09 09:09:27;;;;;;;;;15.00;13.67;;;;;27.08;30.55;101524.67;244609;1183;89176;-74
2024/04/09 09:14:32;;;;;;;;;11.67;11.33;;;;;27.12;30.67;101521.17;244664;1179;88442;-72
2024/04/09 09:19:37;;;;;;;;;14.33;14.00;;;;;27.16;30.64;101521.96;244767;1179;87602;-75
2024/04/09 09:24:42;;;;;;;;;13.50;11.50;;;;;27.22;30.72;101513.59;244777;1180;88155;-71
2024/04/09 09:38:45;;;;;;;;;15.33;13.00;;;;;26.86;29.49;101499.77;235967;1196;58448;-63
2024/04/09 09:43:48;;;;;;;;;13.00;11.00;;;;;26.87;29.57;101496.83;238433;1183;73443;-62
2024/04/09 09:48:55;;;;;;;;;13.00;12.00;;;;;27.03;29.81;101489.32;238534;1184;57987;-61
2024/04/09 09:53:58;;;;;;;;;12.00;11.00;;;;;27.16;29.40;101488.88;243917;1188;72617;-63
2024/04/09 09:59:03;;;;;;;;;14.00;13.50;;;;;27.43;28.85;101483.89;243910;1184;56774;-62
2024/04/09 10:04:06;;;;;;;;;11.33;11.00;;;;;27.62;28.84;101483.15;243874;1185;73956;-64
2024/04/09 10:09:11;;;;;;;;;11.50;11.50;;;;;27.78;28.51;101479.80;243897;1185;72607;-62
2024/04/09 10:14:22;;;;;;;;;12.75;12.00;;;;;27.91;28.32;101479.10;243895;1183;73839;-62
2024/04/09 10:19:34;;;;;;;;;11.50;9.50;;;;;28.05;27.87;101468.54;244115;1188;73492;-62
2024/04/09 10:24:38;;;;;;;;;10.25;10.25;;;;;28.19;27.99;101466.88;243874;1183;73491;-62
2024/04/09 10:29:53;;;;;;;;;10.00;9.75;;;;;28.31;27.70;101458.88;243981;1188;72812;-62
2024/04/09 10:34:56;;;;;;;;;10.25;10.25;;;;;28.43;27.58;101462.04;243694;1187;72714;-62
2024/04/09 10:39:59;;;;;;;;;13.25;12.25;;;;;28.54;27.37;101456.77;244076;1187;73823;-62
2024/04/09 10:45:04;;;;;;;;;11.00;11.00;;;;;28.65;27.43;101450.38;244359;1186;57570;-62
2024/04/09 10:50:08;;;;;;;;;9.50;9.50;;;;;28.76;27.15;101446.70;244448;1183;73429;-64
2024/04/09 10:55:13;;;;;;;;;13.75;9.75;;;;;28.88;27.13;101439.46;244165;1187;74142;-62
2024/04/09 11:00:16;;;;;;;;;10.25;10.00;;;;;28.99;27.00;101434.73;244196;1187;73574;-64
2024/04/09 11:05:19;;;;;;;;;15.00;11.00;;;;;29.11;26.80;101428.02;244390;1187;73742;-62
2024/04/09 11:10:22;;;;;;;;;11.00;11.00;;;;;29.20;26.85;101426.13;244334;1183;58125;-63
2024/04/09 11:15:25;;;;;;;;;12.00;10.00;;;;;29.27;26.42;101414.24;244452;1183;57527;-65
2024/04/09 11:20:28;;;;;;;;;9.50;9.50;;;;;29.36;26.57;101415.23;244412;1182;57560;-63
2024/04/09 11:25:35;;;;;;;;;12.00;11.00;;;;;29.45;26.41;101406.39;244237;1187;57512;-63
2024/04/09 11:30:42;;;;;;;;;10.75;10.75;;;;;29.51;26.17;101399.50;244232;1188;72770;-63
2024/04/09 11:35:54;;;;;;;;;9.25;9.25;;;;;29.57;26.08;101385.93;244499;1183;74121;-63
2024/04/09 11:40:57;;;;;;;;;10.67;10.33;;;;;29.64;25.86;101383.68;244477;1182;73717;-62
2024/04/09 11:46:01;;;;;;;;;9.67;9.67;;;;;29.71;25.85;101371.66;244330;1183;58210;-62
2024/04/09 11:51:04;;;;;;;;;12.00;10.00;;;;;29.78;25.77;101371.10;244101;1183;74211;-62
2024/04/09 11:56:07;;;;;;;;;9.33;9.33;;;;;29.84;25.63;101359.50;245055;1185;57524;-63
2024/04/09 12:01:09;;;;;;;;;11.00;11.00;;;;;29.90;25.56;101351.02;244941;1192;57647;-62
2024/04/09 12:06:13;;;;;;;;;9.00;9.00;;;;;29.95;25.45;101345.58;245478;1179;57324;-64
2024/04/09 12:11:16;;;;;;;;;11.33;11.33;;;;;29.99;25.43;101332.66;245457;1180;57573;-63
2024/04/09 12:16:23;;;;;;;;;9.25;9.25;;;;;30.04;25.31;101326.94;244759;1180;73491;-63
2024/04/09 12:21:26;;;;;;;;;10.25;9.75;;;;;30.11;25.32;101325.00;240917;1180;73650;-64
2024/04/09 12:26:29;;;;;;;;;9.00;8.50;;;;;30.18;25.18;101321.95;245472;1180;57495;-64
2024/04/09 12:31:32;;;;;;;;;8.25;8.25;;;;;30.28;25.09;101310.04;245464;1180;57501;-63
2024/04/09 12:36:35;;;;;;;;;10.00;8.33;;;;;30.39;24.94;101302.11;245469;1183;57476;-62
2024/04/09 12:41:38;;;;;;;;;10.33;10.33;;;;;30.43;24.88;101300.20;245427;1192;57538;-62
2024/04/09 12:46:41;;;;;;;;;11.00;11.00;;;;;30.43;24.93;101288.17;245138;1179;73538;-62
2024/04/09 12:51:44;;;;;;;;;7.33;7.33;;;;;30.39;24.88;101280.91;245110;1185;57501;-62
2024/04/09 12:56:48;;;;;;;;;10.25;10.25;;;;;30.35;24.98;101282.73;244868;1184;57488;-64
2024/04/09 13:01:51;;;;;;;;;13.75;13.50;;;;;30.06;27.07;101274.99;244720;1180;73190;-64
2024/04/09 13:06:54;;;;;;;;;19.25;11.25;;;;;29.73;31.52;101273.02;244601;1186;57501;-62
2024/04/09 13:11:57;;;;;;;;;11.00;11.00;;;;;29.45;34.06;101271.30;244601;1180;57503;-62
2024/04/09 13:17:00;;;;;;;;;11.00;11.00;;;;;29.26;33.04;101266.98;244602;1180;57811;-63
2024/04/09 13:22:08;;;;;;;;;13.00;11.00;;;;;29.12;31.77;101265.83;244603;1181;72790;-63
2024/04/09 13:27:11;;;;;;;;;12.50;12.50;;;;;29.01;29.15;101261.15;244870;1184;57742;-64
2024/04/09 13:32:18;;;;;;;;;13.33;11.33;;;;;28.93;27.74;101258.30;245155;1185;57940;-64
2024/04/09 13:37:22;;;;;;;;;12.25;12.25;;;;;28.85;27.60;101261.79;245166;1180;73162;-64
2024/04/09 13:42:24;;;;;;;;;10.67;10.67;;;;;28.75;27.75;101254.30;245149;1180;57527;-62
2024/04/09 13:47:27;;;;;;;;;14.67;13.00;;;;;28.65;28.11;101251.27;244910;1185;57529;-63
2024/04/09 13:52:31;;;;;;;;;12.00;12.00;;;;;28.58;28.26;101255.16;245166;1180;57801;-63
2024/04/09 13:57:33;;;;;;;;;12.33;12.33;;;;;28.69;28.50;101250.02;245139;1185;57552;-62
2024/04/09 14:02:37;;;;;;;;;14.00;14.00;;;;;28.87;28.33;101249.11;245114;1180;57469;-62
2024/04/09 14:07:41;;;;;;;;;14.00;11.00;;;;;28.99;27.91;101248.66;245161;1180;57499;-63
2024/04/09 14:12:44;;;;;;;;;11.00;10.00;;;;;29.05;27.97;101252.23;245163;1185;72647;-63
2024/04/09 14:17:53;;;;;;;;;11.67;10.00;;;;;29.11;27.82;101250.35;244909;1185;57655;-61
2024/04/09 14:22:56;;;;;;;;;10.25;10.25;;;;;29.24;27.53;101253.47;245153;1185;72784;-62
2024/04/09 14:27:59;;;;;;;;;12.67;12.67;;;;;29.26;27.51;101257.02;245125;1179;57494;-61
2024/04/09 14:33:04;;;;;;;;;10.00;10.00;;;;;29.20;27.74;101247.30;245152;1186;57471;-63
2024/04/09 14:38:07;;;;;;;;;11.00;11.00;;;;;29.14;27.78;101244.93;245157;1179;73924;-61
2024/04/09 14:43:10;;;;;;;;;11.50;9.75;;;;;29.07;28.07;101237.83;245142;1180;57564;-62
2024/04/09 14:48:13;;;;;;;;;10.25;10.25;;;;;29.00;28.22;101234.64;245131;1180;73507;-63
2024/04/09 14:53:16;;;;;;;;;9.25;9.25;;;;;28.95;28.28;101230.37;244908;1186;73838;-62
2024/04/09 14:58:20;;;;;;;;;12.00;12.00;;;;;28.90;28.33;101235.16;245165;1180;57865;-61
2024/04/09 15:03:23;;;;;;;;;11.25;11.25;;;;;28.84;28.42;101229.19;245124;1180;73780;-63
2024/04/09 15:08:28;;;;;;;;;13.00;13.00;;;;;28.78;28.60;101231.52;245142;1184;72666;-62
2024/04/09 15:13:31;;;;;;;;;11.33;10.67;;;;;28.71;28.77;101233.98;245079;1185;73487;-61
2024/04/09 15:18:34;;;;;;;;;10.75;10.75;;;;;28.61;28.77;101228.13;244888;1189;74309;-62
2024/04/09 15:23:37;;;;;;;;;10.67;10.67;;;;;28.49;28.88;101229.41;245141;1180;57504;-63
2024/04/09 15:28:40;;;;;;;;;9.33;9.33;;;;;28.39;29.21;101231.59;245136;1180;57485;-62
2024/04/09 15:33:43;;;;;;;;;11.33;10.00;;;;;28.29;29.19;101235.52;245127;1180;57495;-63
2024/04/09 15:38:46;;;;;;;;;10.33;10.33;;;;;28.22;29.66;101243.13;244918;1185;57562;-62
2024/04/09 15:43:49;;;;;;;;;10.00;9.33;;;;;28.15;29.54;101253.61;245160;1185;57672;-61
2024/04/09 15:48:52;;;;;;;;;8.00;8.00;;;;;28.08;29.95;101258.20;245125;1179;57535;-63
2024/04/09 15:53:57;;;;;;;;;10.33;10.33;;;;;28.01;30.12;101254.33;244941;1186;57610;-62
2024/04/09 15:59:02;;;;;;;;;13.00;13.00;;;;;27.95;30.32;101260.20;245109;1185;74088;-61
2024/04/09 16:04:05;;;;;;;;;13.00;11.00;;;;;27.89;30.43;101263.00;245151;1185;73845;-62
2024/04/09 16:09:08;;;;;;;;;9.00;9.00;;;;;27.84;30.26;101267.85;245128;1185;57621;-62
2024/04/09 16:14:11;;;;;;;;;9.00;9.00;;;;;27.80;30.34;101271.06;245104;1185;57510;-63
2024/04/09 16:19:14;;;;;;;;;10.33;10.33;;;;;27.74;30.44;101270.84;245163;1179;57515;-62
2024/04/09 16:24:17;;;;;;;;;14.00;12.00;;;;;27.70;30.64;101270.19;245074;1185;57480;-62
2024/04/09 16:29:20;;;;;;;;;10.00;10.00;;;;;27.66;30.50;101270.89;245123;1185;57575;-62
2024/04/09 16:34:23;;;;;;;;;11.00;10.67;;;;;27.62;30.64;101268.98;244889;1184;57526;-62
2024/04/09 16:39:26;;;;;;;;;12.00;10.67;;;;;27.59;30.63;101266.17;245161;1185;57548;-62
2024/04/09 16:44:29;;;;;;;;;12.67;10.67;;;;;27.55;30.55;101263.78;245116;1185;57557;-62
2024/04/09 16:49:32;;;;;;;;;10.33;10.00;;;;;27.51;30.78;101262.92;245117;1180;57519;-62
2024/04/09 16:54:35;;;;;;;;;9.00;9.00;;;;;27.48;30.59;101264.84;245115;1180;57779;-61
2024/04/09 16:59:38;;;;;;;;;11.67;11.67;;;;;27.45;30.89;101276.32;245156;1185;57560;-62
2024/04/09 17:04:41;;;;;;;;;11.00;11.00;;;;;27.42;30.79;101276.78;245166;1186;57445;-62
2024/04/09 17:09:49;;;;;;;;;10.00;10.00;;;;;27.39;30.81;101277.08;245122;1179;57905;-61
2024/04/09 17:14:52;;;;;;;;;12.25;12.00;;;;;27.36;30.75;101277.87;245152;1180;73229;-64
2024/04/09 17:19:55;;;;;;;;;13.00;13.00;;;;;27.34;30.88;101280.08;244865;1185;57589;-62
2024/04/09 17:24:57;;;;;;;;;11.67;11.67;;;;;27.32;30.91;101278.24;245156;1180;57471;-62
2024/04/09 17:30:04;;;;;;;;;12.25;12.25;;;;;27.29;30.94;101287.11;245160;1185;73534;-62
2024/04/09 17:35:10;;;;;;;;;10.75;10.75;;;;;27.26;31.21;101289.93;245150;1180;73660;-64
2024/04/09 17:40:13;;;;;;;;;11.00;11.00;;;;;27.23;30.96;101294.07;245179;1192;71640;-61
2024/04/09 17:45:16;;;;;;;;;11.67;11.67;;;;;27.21;31.04;101300.09;245128;1185;57744;-62
2024/04/09 17:50:19;;;;;;;;;11.00;11.00;;;;;27.19;30.95;101299.14;245134;1185;73570;-62
2024/04/09 17:55:24;;;;;;;;;13.33;12.33;;;;;27.17;31.03;101301.02;245123;1187;58044;-62
2024/04/09 18:00:27;;;;;;;;;12.00;10.50;;;;;27.15;31.02;101309.27;244885;1185;72999;-62
2024/04/09 18:05:30;;;;;;;;;11.00;11.00;;;;;27.13;30.81;101310.90;245147;1185;58329;-62
2024/04/09 18:10:33;;;;;;;;;11.67;11.67;;;;;27.11;31.15;101316.05;244941;1180;73555;-62
2024/04/09 18:15:36;;;;;;;;;11.00;11.00;;;;;27.10;30.98;101319.96;245157;1179;72895;-61
2024/04/09 18:20:39;;;;;;;;;11.50;10.75;;;;;27.08;30.94;101322.55;245117;1184;58311;-61
2024/04/09 18:25:42;;;;;;;;;13.00;12.00;;;;;27.07;31.00;101323.86;245144;1185;58288;-64
2024/04/09 18:30:56;;;;;;;;;11.33;11.33;;;;;27.05;31.24;101317.89;245124;1185;58358;-62
2024/04/09 18:36:00;;;;;;;;;11.25;11.25;;;;;27.04;31.09;101319.34;245327;1183;72767;-64
2024/04/09 18:41:05;;;;;;;;;14.67;14.00;;;;;27.03;31.21;101314.41;245344;1183;72715;-62
2024/04/09 18:46:08;;;;;;;;;12.50;10.50;;;;;27.00;31.18;101314.48;245369;1183;73435;-64
2024/04/09 18:51:13;;;;;;;;;11.00;11.00;;;;;26.99;31.08;101319.12;245490;1178;58347;-62
2024/04/09 18:56:16;;;;;;;;;9.50;9.50;;;;;26.97;31.14;101318.35;245456;1178;73486;-61
2024/04/09 19:01:19;;;;;;;;;10.00;10.00;;;;;26.96;31.23;101321.34;245477;1179;58302;-62
2024/04/09 19:06:22;;;;;;;;;13.00;11.00;;;;;26.94;31.32;101319.48;245477;1179;58326;-63
2024/04/09 19:11:27;;;;;;;;;12.00;12.00;;;;;26.93;31.28;101318.33;245485;1182;58339;-62
2024/04/09 19:16:30;;;;;;;;;11.75;11.75;;;;;26.92;31.26;101320.85;245523;1179;72953;-62
2024/04/09 19:21:34;;;;;;;;;12.50;10.50;;;;;26.91;31.21;101322.25;245492;1179;73685;-63
2024/04/09 19:26:37;;;;;;;;;10.50;10.25;;;;;26.89;31.33;101320.30;245371;1180;73121;-62
2024/04/09 19:31:40;;;;;;;;;11.25;11.25;;;;;26.88;31.29;101321.36;245323;1179;58333;-62
2024/04/09 19:36:43;;;;;;;;;11.00;11.00;;;;;26.87;31.40;101326.59;245452;1178;58456;-62
2024/04/09 19:41:46;;;;;;;;;11.00;11.00;;;;;26.86;31.36;101328.92;245355;1179;58328;-61
2024/04/09 19:46:48;;;;;;;;;12.00;12.00;;;;;26.84;31.46;101330.38;245486;1179;58660;-64
2024/04/09 19:51:56;;;;;;;;;11.00;11.00;;;;;26.84;31.50;101332.63;245362;1181;73364;-62
2024/04/09 19:56:59;;;;;;;;;11.00;11.00;;;;;26.83;31.32;101337.23;245474;1182;58395;-61
2024/04/09 20:02:02;;;;;;;;;10.00;10.00;;;;;26.83;31.46;101344.77;245518;1183;58301;-62
2024/04/09 20:07:05;;;;;;;;;9.67;9.67;;;;;26.81;31.39;101338.63;245539;1179;58617;-62
2024/04/09 20:12:08;;;;;;;;;11.00;10.33;;;;;26.80;31.58;101348.05;245483;1182;58308;-62
2024/04/09 20:17:11;;;;;;;;;11.00;11.00;;;;;26.79;31.34;101346.20;245519;1180;58341;-62
2024/04/09 20:22:14;;;;;;;;;10.25;10.25;;;;;26.78;31.54;101345.51;245497;1182;58369;-64
2024/04/09 20:27:17;;;;;;;;;10.00;10.00;;;;;26.77;31.32;101346.52;245496;1182;58340;-62
2024/04/09 20:32:20;;;;;;;;;11.00;11.00;;;;;26.76;31.53;101341.62;245507;1178;58444;-61
2024/04/09 20:37:24;;;;;;;;;10.00;10.00;;;;;26.74;31.53;101342.35;245462;1182;58438;-61
2024/04/09 20:42:27;;;;;;;;;12.00;12.00;;;;;26.74;31.65;101341.08;245477;1179;58320;-62
2024/04/09 20:47:30;;;;;;;;;11.00;10.00;;;;;26.73;31.50;101341.77;245465;1183;58322;-61
2024/04/09 20:52:33;;;;;;;;;11.50;11.50;;;;;26.72;31.52;101332.51;245485;1183;58323;-62
2024/04/09 20:57:35;;;;;;;;;12.00;12.00;;;;;26.70;31.59;101331.10;245343;1183;58348;-62
2024/04/09 21:02:38;;;;;;;;;10.33;10.33;;;;;26.70;31.58;101329.17;245487;1183;58308;-63
2024/04/09 21:07:42;;;;;;;;;11.00;11.00;;;;;26.69;31.58;101328.25;245350;1179;58297;-62
2024/04/09 21:12:45;;;;;;;;;13.67;12.33;;;;;26.68;31.69;101329.48;245535;1179;58335;-63
2024/04/09 21:17:48;;;;;;;;;10.00;10.00;;;;;26.67;31.64;101334.90;245354;1182;58246;-61
2024/04/09 21:22:51;;;;;;;;;10.33;10.33;;;;;26.66;31.75;101339.23;245487;1183;58384;-62
2024/04/09 21:27:54;;;;;;;;;10.67;10.67;;;;;26.65;31.62;101335.52;245487;1183;58330;-63
2024/04/09 21:32:57;;;;;;;;;9.75;9.75;;;;;26.64;31.68;101334.77;245498;1179;58395;-62
2024/04/09 21:38:00;;;;;;;;;11.33;10.67;;;;;26.64;31.75;101329.79;245534;1182;58327;-62
2024/04/09 21:43:03;;;;;;;;;12.00;12.00;;;;;26.64;31.80;101326.02;245484;1183;58327;-61
2024/04/09 21:48:08;;;;;;;;;11.00;11.00;;;;;26.63;31.65;101323.77;245465;1178;58340;-62
2024/04/09 21:53:11;;;;;;;;;11.75;11.75;;;;;26.62;31.58;101320.49;245345;1191;72543;-62
2024/04/09 21:58:14;;;;;;;;;13.00;11.00;;;;;26.62;31.62;101317.88;245322;1183;58334;-62
2024/04/09 22:03:17;;;;;;;;;10.00;10.00;;;;;26.61;31.65;101320.43;245473;1179;58394;-63
2024/04/09 22:08:21;;;;;;;;;12.33;12.33;;;;;26.61;31.74;101322.89;245487;1180;58401;-61
2024/04/09 22:13:24;;;;;;;;;10.75;10.75;;;;;26.60;31.62;101318.40;245341;1183;73135;-61
2024/04/09 22:18:27;;;;;;;;;11.00;11.00;;;;;26.59;31.77;101315.30;245479;1183;58483;-62
2024/04/09 22:23:30;;;;;;;;;8.00;8.00;;;;;26.58;31.89;101317.09;245314;1182;58379;-61
2024/04/09 22:28:34;;;;;;;;;11.33;11.33;;;;;26.57;31.69;101308.40;245495;1183;58262;-62
2024/04/09 22:33:36;;;;;;;;;11.75;11.75;;;;;26.56;31.76;101304.59;245499;1183;72635;-61
2024/04/09 22:38:40;;;;;;;;;13.75;11.75;;;;;26.56;31.72;101299.31;245499;1182;58316;-62
2024/04/09 22:43:42;;;;;;;;;12.50;11.25;;;;;26.55;31.68;101292.54;245313;1183;58423;-63
2024/04/09 22:48:46;;;;;;;;;11.00;11.00;;;;;26.54;31.85;101286.02;245457;1183;58350;-61
2024/04/09 22:53:53;;;;;;;;;12.00;12.00;;;;;26.54;31.83;101283.17;245527;1182;72366;-61
2024/04/09 22:58:56;;;;;;;;;10.50;10.50;;;;;26.54;31.70;101274.95;245505;1183;73814;-61
2024/04/09 23:03:59;;;;;;;;;10.75;10.75;;;;;26.53;31.82;101268.34;245488;1183;73503;-62
2024/04/09 23:09:03;;;;;;;;;12.00;12.00;;;;;26.52;31.81;101268.61;245470;1179;73094;-62
2024/04/09 23:14:06;;;;;;;;;10.00;10.00;;;;;26.51;31.82;101274.73;245482;1183;73888;-62